Westside, Georgia
Current Conditions -  °F | °C
As of 10:53 AM on Sunday 25 Jan 2015 (Local Time) from KGVL Reporting Station
Clear Clear  
Wind Chill: 42°   Ceiling: Unl
Heat Index: 47°   Visibility: 10mi
Dew Point: 31°   Wind: 12mph
Humidity: 54%   Direction: 250°WSW
Pressure: 29.93"   Gusts: NA
Location:  34.3157°N, 83.8152°W
Report Text: KGVL 251553Z AUTO 25010KT 10SM CLR 08/M01 A2993 RMK AO2 SLP137 T00831006
Loading
Personal Weather Stations






























Interactive Weather Map New forecast layout! Learn more

10-Day Weather Forecast

Advertisements
Track Severe Weather on mobile